createdAt,value
2023-03-16T00:01:06.685Z,5.41
2023-03-16T00:03:36.792Z,5.40
2023-03-16T00:06:06.334Z,5.40
2023-03-16T00:08:37.317Z,5.38
2023-03-16T00:11:06.068Z,5.36
2023-03-16T00:13:34.653Z,5.35
2023-03-16T00:16:07.963Z,5.34
2023-03-16T00:18:39.394Z,5.34
2023-03-16T00:21:08.000Z,5.34
2023-03-16T00:23:37.475Z,5.35
2023-03-16T00:26:09.519Z,5.34
2023-03-16T00:28:39.987Z,5.33
2023-03-16T00:31:12.059Z,5.33
2023-03-16T00:33:45.283Z,5.32
2023-03-16T00:36:14.100Z,5.32
2023-03-16T00:38:49.559Z,5.33
2023-03-16T00:41:18.852Z,5.32
2023-03-16T00:43:49.274Z,5.32
2023-03-16T00:46:18.755Z,5.31
2023-03-16T00:48:48.905Z,5.31
2023-03-16T00:51:19.588Z,5.31
2023-03-16T00:53:49.240Z,5.31
2023-03-16T00:56:20.489Z,5.30
2023-03-16T00:58:49.907Z,5.30
2023-03-16T01:01:20.083Z,5.28
2023-03-16T01:03:50.222Z,5.28
2023-03-16T01:06:20.883Z,5.27
2023-03-16T01:08:49.717Z,5.27
2023-03-16T01:11:20.499Z,5.25
2023-03-16T01:13:49.906Z,5.25
2023-03-16T01:16:19.293Z,5.23
2023-03-16T01:18:52.773Z,5.22
2023-03-16T01:21:22.089Z,5.21
2023-03-16T01:23:54.070Z,5.20
2023-03-16T01:26:25.465Z,5.19
2023-03-16T01:28:55.313Z,5.17
2023-03-16T01:31:24.358Z,5.15
2023-03-16T01:33:53.401Z,5.14
2023-03-16T01:36:25.787Z,5.13
2023-03-16T01:39:01.944Z,5.11
2023-03-16T01:41:39.265Z,5.11
2023-03-16T01:44:12.504Z,5.10
2023-03-16T01:46:42.840Z,5.09
2023-03-16T01:49:27.493Z,5.09
2023-03-16T01:52:09.058Z,5.09
2023-03-16T01:54:50.258Z,5.10
2023-03-16T01:57:22.158Z,5.10
2023-03-16T02:00:10.064Z,5.11
2023-03-16T02:02:49.917Z,5.12
2023-03-16T02:05:43.689Z,5.11
2023-03-16T02:08:16.259Z,5.09
2023-03-16T02:10:45.515Z,5.09
2023-03-16T02:13:14.262Z,5.09
2023-03-16T02:15:43.795Z,5.08
2023-03-16T02:18:12.456Z,5.08
2023-03-16T02:21:05.908Z,5.09
2023-03-16T02:23:34.986Z,5.11
2023-03-16T02:26:11.487Z,5.11
2023-03-16T02:28:54.378Z,5.10
2023-03-16T02:31:27.752Z,5.11
2023-03-16T02:33:56.965Z,5.12
2023-03-16T02:36:25.423Z,5.13
2023-03-16T02:38:54.355Z,5.17
2023-03-16T02:41:23.731Z,5.20
2023-03-16T02:44:25.927Z,5.23
2023-03-16T02:46:57.820Z,5.27
2023-03-16T02:49:30.672Z,5.30
2023-03-16T02:51:59.462Z,5.32
2023-03-16T02:54:28.278Z,5.34
2023-03-16T02:56:57.956Z,5.37
2023-03-16T02:59:27.360Z,5.38
2023-03-16T03:01:58.908Z,5.39
2023-03-16T03:04:28.414Z,5.40
2023-03-16T03:07:04.209Z,5.39
2023-03-16T03:09:35.616Z,5.36
2023-03-16T03:12:05.029Z,5.33
2023-03-16T03:14:38.275Z,5.31
2023-03-16T03:17:07.726Z,5.31
2023-03-16T03:19:36.483Z,5.33
2023-03-16T03:22:10.061Z,5.33
2023-03-16T03:24:39.610Z,5.34
2023-03-16T03:27:08.400Z,5.35
2023-03-16T03:29:39.041Z,5.37
2023-03-16T03:32:08.299Z,5.40
2023-03-16T03:34:38.962Z,5.41
2023-03-16T03:37:07.661Z,5.41
2023-03-16T03:39:39.925Z,5.44
2023-03-16T03:42:09.223Z,5.45
2023-03-16T03:44:38.107Z,5.46
2023-03-16T03:47:08.630Z,5.46
2023-03-16T03:49:37.273Z,5.44
2023-03-16T03:52:06.339Z,5.44
2023-03-16T03:54:36.707Z,5.42
2023-03-16T03:57:10.269Z,5.40
2023-03-16T03:59:44.105Z,5.39
2023-03-16T04:02:16.028Z,5.40
2023-03-16T04:04:51.736Z,5.42
2023-03-16T04:07:20.536Z,5.43
2023-03-16T04:09:49.425Z,5.46
2023-03-16T04:12:39.679Z,5.48
2023-03-16T04:15:10.342Z,5.51
2023-03-16T04:17:55.240Z,5.56
2023-03-16T04:20:24.327Z,5.59
2023-03-16T04:22:58.886Z,5.61
2023-03-16T04:25:31.219Z,5.63
2023-03-16T04:28:03.997Z,5.66
2023-03-16T04:30:33.440Z,5.69
2023-03-16T04:33:22.568Z,5.72
2023-03-16T04:35:52.470Z,5.74
2023-03-16T04:38:25.679Z,5.76
2023-03-16T04:40:58.660Z,5.78
2023-03-16T04:43:34.914Z,5.76
2023-03-16T04:46:08.429Z,5.72
2023-03-16T04:48:37.521Z,5.70
2023-03-16T04:51:07.329Z,5.70
2023-03-16T04:53:38.983Z,5.70
2023-03-16T04:56:18.670Z,5.72
2023-03-16T04:58:49.974Z,5.74
2023-03-16T05:01:22.329Z,5.76
2023-03-16T05:03:53.381Z,5.79
2023-03-16T05:06:22.687Z,5.79
2023-03-16T05:08:52.328Z,5.79
2023-03-16T05:11:20.964Z,5.79
2023-03-16T05:13:55.806Z,5.79
2023-03-16T05:16:29.570Z,5.77
2023-03-16T05:18:59.940Z,5.76
2023-03-16T05:21:32.358Z,5.74
2023-03-16T05:24:08.376Z,5.75
2023-03-16T05:26:37.159Z,5.76
2023-03-16T05:29:05.985Z,5.79
2023-03-16T05:31:35.282Z,5.83
2023-03-16T05:34:06.501Z,5.85
2023-03-16T05:36:38.149Z,5.87
2023-03-16T05:39:11.235Z,5.89
2023-03-16T05:41:44.735Z,5.96
2023-03-16T05:44:33.913Z,6.03
2023-03-16T05:47:25.732Z,6.08
2023-03-16T05:49:57.391Z,6.13
2023-03-16T05:52:39.809Z,6.16
2023-03-16T05:55:15.546Z,6.17
2023-03-16T05:57:45.357Z,6.19
2023-03-16T06:00:16.932Z,6.23
2023-03-16T06:02:50.321Z,6.29
2023-03-16T06:05:19.722Z,6.34
2023-03-16T06:07:49.007Z,6.35
2023-03-16T06:10:18.929Z,6.35
2023-03-16T06:12:47.927Z,6.35
2023-03-16T06:15:16.622Z,6.35
2023-03-16T06:17:48.982Z,6.34
2023-03-16T06:20:18.176Z,6.37
2023-03-16T06:22:47.169Z,6.42
2023-03-16T06:25:39.551Z,6.48
2023-03-16T06:28:11.314Z,6.55
2023-03-16T06:30:42.223Z,6.59
2023-03-16T06:33:11.158Z,6.65
2023-03-16T06:35:40.360Z,6.69
2023-03-16T06:38:27.386Z,6.72
2023-03-16T06:41:09.403Z,6.77
2023-03-16T06:43:39.950Z,6.81
2023-03-16T06:46:09.737Z,6.83
2023-03-16T06:48:39.454Z,6.85
2023-03-16T06:51:08.854Z,6.87
2023-03-16T06:53:38.010Z,6.89
2023-03-16T06:56:07.665Z,6.93
2023-03-16T06:58:39.579Z,6.94
2023-03-16T07:01:10.869Z,6.93
2023-03-16T07:03:42.147Z,6.91
2023-03-16T07:06:24.185Z,6.92
2023-03-16T07:08:54.477Z,6.95
2023-03-16T07:11:24.744Z,6.96
2023-03-16T07:13:53.358Z,6.98
2023-03-16T07:16:25.054Z,7.00
2023-03-16T07:18:57.116Z,7.02
2023-03-16T07:21:26.747Z,7.07
2023-03-16T07:23:56.188Z,7.13
2023-03-16T07:26:27.473Z,7.15
2023-03-16T07:28:59.813Z,7.15
2023-03-16T07:31:28.789Z,7.14
2023-03-16T07:33:59.253Z,7.14
2023-03-16T07:36:35.420Z,7.17
2023-03-16T07:39:06.451Z,7.21
2023-03-16T07:41:37.662Z,7.23
2023-03-16T07:44:18.334Z,7.23
2023-03-16T07:46:53.678Z,7.22
2023-03-16T07:49:25.731Z,7.21
2023-03-16T07:51:55.355Z,7.20
2023-03-16T07:54:28.446Z,7.20
2023-03-16T07:56:56.955Z,7.21
2023-03-16T07:59:38.821Z,7.20
2023-03-16T08:02:16.681Z,7.21
2023-03-16T08:04:46.014Z,7.21
2023-03-16T08:07:16.225Z,7.24
2023-03-16T08:09:52.998Z,7.30
2023-03-16T08:12:35.587Z,7.35
2023-03-16T08:15:06.460Z,7.40
2023-03-16T08:17:35.420Z,7.50
2023-03-16T08:20:27.514Z,7.62
2023-03-16T08:22:56.544Z,7.69
2023-03-16T08:25:28.126Z,7.71
2023-03-16T08:28:04.880Z,7.70
2023-03-16T08:30:34.161Z,7.68
2023-03-16T08:33:28.180Z,7.63
2023-03-16T08:35:57.516Z,7.60
2023-03-16T08:38:27.395Z,7.58
2023-03-16T08:41:00.566Z,7.57
2023-03-16T08:43:30.613Z,7.56
2023-03-16T08:46:05.740Z,7.58
2023-03-16T08:48:44.356Z,7.63
2023-03-16T08:51:14.184Z,7.68
2023-03-16T08:53:54.838Z,7.74
2023-03-16T08:56:24.449Z,7.82
2023-03-16T08:58:53.457Z,7.87
2023-03-16T09:01:27.105Z,7.88
2023-03-16T09:03:56.026Z,7.91
2023-03-16T09:06:24.832Z,7.93
2023-03-16T09:09:05.605Z,7.97
2023-03-16T09:11:45.202Z,8.05
2023-03-16T09:14:14.632Z,8.09
2023-03-16T09:16:45.007Z,8.13
2023-03-16T09:19:18.406Z,8.17
2023-03-16T09:21:49.707Z,8.22
2023-03-16T09:24:18.803Z,8.28
2023-03-16T09:27:00.604Z,8.29
2023-03-16T09:29:33.506Z,8.35
2023-03-16T09:32:04.381Z,8.41
2023-03-16T09:34:33.459Z,8.43
2023-03-16T09:37:03.048Z,8.47
2023-03-16T09:39:33.291Z,8.53
2023-03-16T09:42:22.148Z,8.63
2023-03-16T09:45:24.552Z,8.74
2023-03-16T09:47:59.253Z,8.83
2023-03-16T09:50:47.581Z,8.89
2023-03-16T09:53:29.581Z,8.95
2023-03-16T09:56:20.414Z,9.01
2023-03-16T09:58:49.502Z,9.11
2023-03-16T10:01:40.806Z,9.22
2023-03-16T10:04:26.120Z,9.36
2023-03-16T10:07:13.864Z,9.47
2023-03-16T10:10:15.523Z,9.62
2023-03-16T10:12:48.223Z,9.75
2023-03-16T10:15:27.636Z,9.86
2023-03-16T10:18:07.543Z,9.99
2023-03-16T10:20:42.196Z,10.06
2023-03-16T10:23:18.454Z,10.05
2023-03-16T10:25:49.906Z,10.04
2023-03-16T10:28:21.384Z,10.04
2023-03-16T10:30:53.767Z,9.99
2023-03-16T10:33:27.271Z,9.84
2023-03-16T10:36:16.055Z,9.62
2023-03-16T10:38:47.120Z,9.43
2023-03-16T10:41:18.724Z,9.28
2023-03-16T10:43:53.444Z,9.15
2023-03-16T10:46:22.603Z,9.06
2023-03-16T10:48:53.431Z,9.02
2023-03-16T10:51:25.729Z,8.93
2023-03-16T10:53:54.812Z,8.82
2023-03-16T10:56:30.700Z,8.76
2023-03-16T10:59:01.388Z,8.75
2023-03-16T11:01:34.189Z,8.74
2023-03-16T11:04:02.907Z,8.73
2023-03-16T11:06:32.675Z,8.70
2023-03-16T11:09:08.979Z,8.71
2023-03-16T11:11:37.516Z,8.73
2023-03-16T11:14:13.054Z,8.73
2023-03-16T11:16:44.605Z,8.73
2023-03-16T11:20:05.052Z,8.74
2023-03-16T11:22:52.061Z,8.83
2023-03-16T11:25:43.409Z,8.86
2023-03-16T11:28:32.948Z,9.00
2023-03-16T11:31:20.423Z,9.25
2023-03-16T11:33:49.537Z,9.55
2023-03-16T11:36:44.887Z,9.76
2023-03-16T11:39:21.224Z,9.94
2023-03-16T11:42:21.345Z,10.03
2023-03-16T11:45:11.334Z,10.10
2023-03-16T11:48:01.519Z,10.16
2023-03-16T11:50:52.970Z,10.24
2023-03-16T11:53:25.116Z,10.35
2023-03-16T11:56:30.873Z,10.46
2023-03-16T11:59:05.254Z,10.58
2023-03-16T12:02:06.220Z,10.70
2023-03-16T12:05:17.084Z,10.78
2023-03-16T12:08:34.316Z,10.84
2023-03-16T12:11:08.080Z,10.83
2023-03-16T12:13:56.901Z,10.86
2023-03-16T12:16:49.831Z,10.91
2023-03-16T12:19:35.414Z,10.94
2023-03-16T12:22:32.576Z,10.97
2023-03-16T12:25:01.754Z,10.99
2023-03-16T12:27:38.716Z,11.01
2023-03-16T12:30:30.509Z,11.02
2023-03-16T12:33:38.346Z,11.00
2023-03-16T12:36:26.136Z,10.91
2023-03-16T12:39:32.089Z,10.83
2023-03-16T12:42:15.354Z,10.85
2023-03-16T12:44:44.696Z,10.84
2023-03-16T12:47:38.785Z,10.78
2023-03-16T12:50:08.984Z,10.70
2023-03-16T12:52:45.800Z,10.64
2023-03-16T12:55:16.793Z,10.63
2023-03-16T12:57:48.553Z,10.58
2023-03-16T13:00:17.744Z,10.49
2023-03-16T13:02:57.400Z,10.36
2023-03-16T13:05:34.988Z,10.26
2023-03-16T13:08:10.838Z,10.17
2023-03-16T13:11:01.179Z,10.07
2023-03-16T13:13:30.248Z,10.01
2023-03-16T13:16:12.503Z,9.98
2023-03-16T13:18:45.062Z,9.95
2023-03-16T13:21:40.434Z,9.96
2023-03-16T13:24:23.615Z,9.93
2023-03-16T13:26:53.782Z,9.92
2023-03-16T13:29:30.253Z,9.91
2023-03-16T13:32:03.600Z,9.85
2023-03-16T13:34:35.681Z,9.80
2023-03-16T13:37:04.613Z,9.77
2023-03-16T13:39:34.201Z,9.73
2023-03-16T13:42:09.966Z,9.70
2023-03-16T13:44:39.729Z,9.66
2023-03-16T13:47:08.710Z,9.61
2023-03-16T13:49:51.546Z,9.57
2023-03-16T13:52:26.464Z,9.53
2023-03-16T13:55:02.450Z,9.47
2023-03-16T13:57:35.716Z,9.44
2023-03-16T14:00:15.937Z,9.42
2023-03-16T14:02:45.373Z,9.40
2023-03-16T14:05:26.430Z,9.37
2023-03-16T14:07:55.992Z,9.36
2023-03-16T14:10:26.151Z,9.34
2023-03-16T14:13:26.139Z,9.33
2023-03-16T14:16:06.796Z,9.34
2023-03-16T14:18:56.215Z,9.35
2023-03-16T14:21:29.439Z,9.36
2023-03-16T14:24:00.320Z,9.38
2023-03-16T14:26:39.971Z,9.37
2023-03-16T14:29:25.121Z,9.35
2023-03-16T14:31:54.734Z,9.34
2023-03-16T14:34:36.831Z,9.33
2023-03-16T14:37:09.606Z,9.30
2023-03-16T14:39:41.688Z,9.25
2023-03-16T14:42:42.315Z,9.18
2023-03-16T14:45:13.678Z,9.12
2023-03-16T14:47:45.166Z,9.07
2023-03-16T14:50:17.442Z,9.02
2023-03-16T14:52:50.872Z,8.98
2023-03-16T14:55:20.369Z,8.96
2023-03-16T14:57:51.941Z,8.93
2023-03-16T15:00:22.306Z,8.91
2023-03-16T15:03:06.603Z,8.89
2023-03-16T15:05:37.894Z,8.88
2023-03-16T15:08:11.105Z,8.86
2023-03-16T15:10:45.294Z,8.84
2023-03-16T15:13:39.976Z,8.79
2023-03-16T15:16:12.942Z,8.74
2023-03-16T15:18:42.881Z,8.70
2023-03-16T15:21:16.993Z,8.67
2023-03-16T15:23:45.636Z,8.65
2023-03-16T15:26:16.310Z,8.64
2023-03-16T15:28:45.466Z,8.62
2023-03-16T15:31:17.409Z,8.61
2023-03-16T15:33:46.667Z,8.61
2023-03-16T15:36:17.108Z,8.60
2023-03-16T15:38:50.506Z,8.59
2023-03-16T15:41:19.047Z,8.59
2023-03-16T15:43:47.980Z,8.58
2023-03-16T15:46:16.958Z,8.54
2023-03-16T15:48:45.712Z,8.52
2023-03-16T15:51:22.104Z,8.50
2023-03-16T15:53:53.765Z,8.49
2023-03-16T15:56:30.103Z,8.49
2023-03-16T15:59:13.812Z,8.48
2023-03-16T16:01:46.431Z,8.48
2023-03-16T16:04:20.156Z,8.45
2023-03-16T16:06:49.678Z,8.46
2023-03-16T16:09:18.411Z,8.44
2023-03-16T16:11:48.748Z,8.42
2023-03-16T16:14:23.238Z,8.40
2023-03-16T16:16:51.924Z,8.37
2023-03-16T16:19:21.785Z,8.35
2023-03-16T16:21:55.267Z,8.33
2023-03-16T16:24:25.512Z,8.32
2023-03-16T16:26:55.808Z,8.29
2023-03-16T16:29:28.331Z,8.29
2023-03-16T16:31:57.122Z,8.28
2023-03-16T16:34:27.445Z,8.26
2023-03-16T16:36:57.625Z,8.24
2023-03-16T16:39:27.651Z,8.21
2023-03-16T16:41:58.392Z,8.19
2023-03-16T16:44:28.160Z,8.17
2023-03-16T16:47:00.047Z,8.14
2023-03-16T16:49:30.893Z,8.13
2023-03-16T16:51:59.757Z,8.11
2023-03-16T16:54:31.472Z,8.10
2023-03-16T16:57:00.867Z,8.09
2023-03-16T16:59:31.658Z,8.09
2023-03-16T17:02:01.519Z,8.07
2023-03-16T17:04:32.576Z,8.05
2023-03-16T17:07:03.773Z,8.03
2023-03-16T17:09:35.482Z,8.01
2023-03-16T17:12:04.499Z,8.01
2023-03-16T17:14:33.239Z,8.00
2023-03-16T17:17:07.063Z,7.97
2023-03-16T17:19:36.687Z,7.95
2023-03-16T17:22:18.814Z,7.95
2023-03-16T17:24:49.864Z,7.94
2023-03-16T17:27:28.054Z,7.93
2023-03-16T17:29:57.269Z,7.91
2023-03-16T17:32:25.909Z,7.91
2023-03-16T17:34:54.585Z,7.89
2023-03-16T17:37:23.532Z,7.89
2023-03-16T17:39:52.615Z,7.88
2023-03-16T17:42:23.231Z,7.86
2023-03-16T17:44:52.644Z,7.85
2023-03-16T17:47:25.698Z,7.84
2023-03-16T17:49:55.289Z,7.83
2023-03-16T17:52:26.013Z,7.83
2023-03-16T17:54:56.275Z,7.81
2023-03-16T17:57:30.576Z,7.80
2023-03-16T18:00:02.808Z,7.79
2023-03-16T18:02:41.334Z,7.78
2023-03-16T18:05:30.855Z,7.77
2023-03-16T18:08:22.097Z,7.77
2023-03-16T18:10:53.142Z,7.76
2023-03-16T18:13:27.881Z,7.75
2023-03-16T18:16:00.126Z,7.73
2023-03-16T18:18:30.610Z,7.71
2023-03-16T18:21:02.120Z,7.69
2023-03-16T18:23:35.085Z,7.67
2023-03-16T18:26:03.969Z,7.67
2023-03-16T18:28:33.868Z,7.64
2023-03-16T18:31:02.576Z,7.63
2023-03-16T18:33:39.626Z,7.62
2023-03-16T18:36:15.960Z,7.60
2023-03-16T18:38:47.593Z,7.58
2023-03-16T18:41:20.125Z,7.57
2023-03-16T18:43:49.672Z,7.56
2023-03-16T18:46:39.319Z,7.56
2023-03-16T18:49:23.733Z,7.55
2023-03-16T18:51:54.270Z,7.55
2023-03-16T18:54:28.561Z,7.57
2023-03-16T18:57:00.172Z,7.56
2023-03-16T18:59:29.629Z,7.56
2023-03-16T19:02:01.133Z,7.56
2023-03-16T19:04:31.280Z,7.54
2023-03-16T19:07:00.093Z,7.54
2023-03-16T19:09:29.974Z,7.54
2023-03-16T19:11:59.975Z,7.54
2023-03-16T19:14:31.828Z,7.53
2023-03-16T19:17:05.252Z,7.52
2023-03-16T19:19:34.956Z,7.51
2023-03-16T19:22:12.847Z,7.49
2023-03-16T19:24:47.178Z,7.48
2023-03-16T19:27:26.093Z,7.48
2023-03-16T19:29:58.450Z,7.46
2023-03-16T19:32:27.619Z,7.44
2023-03-16T19:34:56.768Z,7.44
2023-03-16T19:37:26.876Z,7.44
2023-03-16T19:39:55.465Z,7.43
2023-03-16T19:42:33.924Z,7.44
2023-03-16T19:45:02.401Z,7.43
2023-03-16T19:47:36.905Z,7.42
2023-03-16T19:50:13.319Z,7.40
2023-03-16T19:52:42.075Z,7.39
2023-03-16T19:55:15.657Z,7.39
2023-03-16T19:57:44.967Z,7.36
2023-03-16T20:00:25.502Z,7.33
2023-03-16T20:02:59.027Z,7.32
2023-03-16T20:05:29.873Z,7.31
2023-03-16T20:07:59.378Z,7.31
2023-03-16T20:10:29.312Z,7.31
2023-03-16T20:13:02.340Z,7.30
2023-03-16T20:15:33.437Z,7.30
2023-03-16T20:18:02.524Z,7.29
2023-03-16T20:20:36.070Z,7.28
2023-03-16T20:23:14.796Z,7.27
2023-03-16T20:25:43.226Z,7.27
2023-03-16T20:28:24.819Z,7.28
2023-03-16T20:30:54.020Z,7.28
2023-03-16T20:33:37.765Z,7.28
2023-03-16T20:36:07.158Z,7.28
2023-03-16T20:38:39.778Z,7.27
2023-03-16T20:41:27.015Z,7.25
2023-03-16T20:43:55.990Z,7.24
2023-03-16T20:46:29.083Z,7.22
2023-03-16T20:48:59.189Z,7.21
2023-03-16T20:51:29.120Z,7.20
2023-03-16T20:53:57.894Z,7.19
2023-03-16T20:56:26.919Z,7.18
2023-03-16T20:58:57.215Z,7.16
2023-03-16T21:01:26.632Z,7.14
2023-03-16T21:03:57.570Z,7.13
2023-03-16T21:06:28.732Z,7.12
2023-03-16T21:08:58.570Z,7.11
2023-03-16T21:11:34.538Z,7.09
2023-03-16T21:14:03.960Z,7.05
2023-03-16T21:16:32.358Z,7.03
2023-03-16T21:19:01.650Z,7.03
2023-03-16T21:21:30.597Z,7.04
2023-03-16T21:24:04.524Z,7.04
2023-03-16T21:26:34.202Z,7.04
2023-03-16T21:29:06.875Z,7.04
2023-03-16T21:31:37.464Z,7.04
2023-03-16T21:34:06.145Z,7.02
2023-03-16T21:36:34.588Z,6.99
2023-03-16T21:39:06.636Z,6.98
2023-03-16T21:41:35.805Z,6.97
2023-03-16T21:44:07.791Z,6.97
2023-03-16T21:46:37.528Z,6.97
2023-03-16T21:49:06.898Z,6.98
2023-03-16T21:51:36.775Z,6.99
2023-03-16T21:54:07.951Z,6.99
2023-03-16T21:56:41.053Z,6.98
2023-03-16T21:59:10.964Z,6.97
2023-03-16T22:01:54.631Z,6.96
2023-03-16T22:04:29.930Z,6.95
2023-03-16T22:06:58.425Z,6.95
2023-03-16T22:09:30.579Z,6.95
2023-03-16T22:11:59.456Z,6.95
2023-03-16T22:14:31.762Z,6.94
2023-03-16T22:17:02.971Z,6.92
2023-03-16T22:19:31.562Z,6.93
2023-03-16T22:22:03.768Z,6.94
2023-03-16T22:24:37.366Z,6.93
2023-03-16T22:27:13.556Z,6.93
2023-03-16T22:29:44.857Z,6.92
2023-03-16T22:32:18.253Z,6.92
2023-03-16T22:34:56.447Z,6.92
2023-03-16T22:37:28.161Z,6.91
2023-03-16T22:39:58.774Z,6.90
2023-03-16T22:42:32.224Z,6.88
2023-03-16T22:45:01.236Z,6.87
2023-03-16T22:47:33.676Z,6.87
2023-03-16T22:50:03.914Z,6.88
2023-03-16T22:52:34.195Z,6.87
2023-03-16T22:55:03.334Z,6.87
2023-03-16T22:57:31.799Z,6.86
2023-03-16T23:00:07.447Z,6.85
2023-03-16T23:02:36.726Z,6.84
2023-03-16T23:05:22.785Z,6.83
2023-03-16T23:07:52.273Z,6.83
2023-03-16T23:10:23.254Z,6.82
2023-03-16T23:13:00.641Z,6.82
2023-03-16T23:15:30.906Z,6.82
2023-03-16T23:17:59.658Z,6.82
2023-03-16T23:20:32.171Z,6.84
2023-03-16T23:23:01.457Z,6.86
2023-03-16T23:25:30.408Z,6.87
2023-03-16T23:27:59.133Z,6.83
2023-03-16T23:30:27.630Z,6.81
2023-03-16T23:32:58.078Z,6.80
2023-03-16T23:35:29.197Z,6.79
2023-03-16T23:38:01.386Z,6.78
2023-03-16T23:40:30.678Z,6.77
2023-03-16T23:42:59.938Z,6.75
2023-03-16T23:45:31.936Z,6.74
2023-03-16T23:48:02.984Z,6.73
2023-03-16T23:50:34.526Z,6.69
2023-03-16T23:53:03.340Z,6.67
2023-03-16T23:55:34.824Z,6.66
2023-03-16T23:58:03.626Z,6.68
